createdAt,value
2022-10-25T00:01:24.077Z,53.11
2022-10-25T00:03:52.746Z,52.86
2022-10-25T00:06:22.908Z,53.21
2022-10-25T00:08:51.572Z,52.99
2022-10-25T00:11:22.220Z,52.75
2022-10-25T00:13:51.166Z,53.01
2022-10-25T00:16:21.529Z,52.77
2022-10-25T00:18:50.108Z,53.09
2022-10-25T00:21:18.731Z,52.96
2022-10-25T00:23:48.682Z,52.88
2022-10-25T00:26:17.305Z,52.72
2022-10-25T00:28:45.795Z,52.61
2022-10-25T00:31:15.437Z,53.20
2022-10-25T00:33:44.528Z,52.92
2022-10-25T00:36:14.454Z,53.02
2022-10-25T00:38:43.123Z,52.67
2022-10-25T00:41:13.568Z,52.74
2022-10-25T00:43:43.588Z,52.99
2022-10-25T00:46:15.245Z,52.84
2022-10-25T00:48:43.850Z,52.99
2022-10-25T00:51:12.403Z,52.47
2022-10-25T00:53:41.099Z,52.51
2022-10-25T00:56:14.496Z,52.82
2022-10-25T00:58:43.188Z,52.97
2022-10-25T01:01:14.496Z,52.65
2022-10-25T01:03:44.003Z,52.92
2022-10-25T01:06:16.352Z,52.64
2022-10-25T01:08:44.907Z,52.83
2022-10-25T01:11:14.785Z,52.73
2022-10-25T01:13:43.376Z,52.61
2022-10-25T01:16:17.909Z,52.75
2022-10-25T01:18:49.603Z,52.46
2022-10-25T01:21:41.265Z,53.23
2022-10-25T01:24:53.722Z,52.62
2022-10-25T01:28:01.487Z,52.75
2022-10-25T01:30:47.192Z,52.49
2022-10-25T01:33:18.331Z,52.50
2022-10-25T01:35:51.753Z,52.69
2022-10-25T01:38:28.295Z,52.22
2022-10-25T01:41:04.568Z,52.32
2022-10-25T01:43:39.021Z,52.21
2022-10-25T01:46:13.690Z,52.54
2022-10-25T01:48:44.922Z,52.21
2022-10-25T01:51:16.139Z,52.42
2022-10-25T01:53:49.582Z,52.41
2022-10-25T01:56:25.517Z,52.36
2022-10-25T01:59:06.897Z,52.12
2022-10-25T02:04:20.434Z,52.35
2022-10-25T02:06:53.353Z,52.21
2022-10-25T02:09:27.085Z,52.23
2022-10-25T02:11:55.873Z,52.12
2022-10-25T02:14:28.199Z,52.06
2022-10-25T02:16:59.599Z,51.86
2022-10-25T02:19:31.363Z,52.35
2022-10-25T02:22:00.241Z,52.01
2022-10-25T02:24:28.923Z,51.86
2022-10-25T02:26:57.508Z,52.30
2022-10-25T02:29:27.111Z,51.82
2022-10-25T02:31:57.902Z,51.99
2022-10-25T02:34:26.955Z,52.18
2022-10-25T02:36:55.657Z,52.09
2022-10-25T02:39:27.740Z,52.01
2022-10-25T02:42:02.496Z,51.67
2022-10-25T02:44:31.461Z,51.82
2022-10-25T02:47:01.330Z,51.69
2022-10-25T02:49:30.228Z,51.90
2022-10-25T02:51:58.798Z,51.93
2022-10-25T02:54:27.564Z,51.93
2022-10-25T02:56:56.219Z,51.81
2022-10-25T02:59:24.851Z,51.84
2022-10-25T03:01:53.472Z,51.76
2022-10-25T03:04:23.841Z,51.60
2022-10-25T03:06:52.679Z,51.73
2022-10-25T03:09:21.476Z,51.94
2022-10-25T03:11:50.297Z,51.73
2022-10-25T03:14:18.837Z,51.89
2022-10-25T03:19:23.506Z,51.64
2022-10-25T03:21:52.233Z,51.63
2022-10-25T03:24:20.822Z,51.59
2022-10-25T03:26:49.503Z,51.79
2022-10-25T03:29:18.426Z,51.87
2022-10-25T03:31:47.462Z,51.71
2022-10-25T03:34:16.957Z,51.85
2022-10-25T03:36:47.134Z,51.67
2022-10-25T03:39:15.893Z,51.72
2022-10-25T03:41:44.515Z,51.44
2022-10-25T03:44:13.073Z,51.24
2022-10-25T03:46:41.679Z,51.52
2022-10-25T03:49:10.213Z,51.56
2022-10-25T03:51:38.835Z,51.45
2022-10-25T03:54:08.752Z,51.35
2022-10-25T03:56:37.219Z,51.36
2022-10-25T03:59:05.811Z,51.39
2022-10-25T04:01:34.394Z,51.52
2022-10-25T04:04:03.324Z,51.47
2022-10-25T04:06:31.876Z,51.39
2022-10-25T04:09:00.425Z,51.26
2022-10-25T04:11:30.332Z,51.40
2022-10-25T04:13:58.892Z,51.51
2022-10-25T04:16:27.738Z,51.22
2022-10-25T04:18:57.365Z,51.63
2022-10-25T04:21:26.031Z,51.33
2022-10-25T04:23:54.658Z,51.30
2022-10-25T04:26:23.179Z,51.38
2022-10-25T04:28:53.718Z,51.47
2022-10-25T04:31:22.593Z,51.40
2022-10-25T04:33:51.448Z,51.19
2022-10-25T04:36:19.984Z,51.16
2022-10-25T04:38:50.166Z,51.19
2022-10-25T04:41:18.712Z,51.48
2022-10-25T04:43:47.538Z,51.32
2022-10-25T04:46:17.448Z,51.20
2022-10-25T04:48:46.060Z,51.36
2022-10-25T04:51:14.650Z,51.15
2022-10-25T04:53:43.235Z,51.10
2022-10-25T04:56:14.397Z,51.27
2022-10-25T04:58:43.071Z,51.20
2022-10-25T05:01:15.002Z,51.17
2022-10-25T05:03:45.121Z,51.04
2022-10-25T05:06:16.082Z,51.46
2022-10-25T05:08:48.887Z,51.30
2022-10-25T05:11:18.782Z,51.08
2022-10-25T05:13:47.466Z,51.16
2022-10-25T05:16:20.626Z,51.18
2022-10-25T05:18:50.794Z,50.68
2022-10-25T05:21:19.668Z,51.46
2022-10-25T05:23:48.336Z,50.96
2022-10-25T05:26:18.654Z,52.20
2022-10-25T05:28:48.597Z,51.71
2022-10-25T05:31:18.261Z,52.27
2022-10-25T05:33:47.098Z,52.04
2022-10-25T05:36:17.035Z,51.85
2022-10-25T05:38:46.003Z,51.81
2022-10-25T05:41:15.616Z,51.50
2022-10-25T05:43:44.495Z,51.62
2022-10-25T05:46:16.117Z,51.42
2022-10-25T05:48:48.975Z,51.71
2022-10-25T05:51:32.985Z,51.25
2022-10-25T05:54:06.135Z,51.48
2022-10-25T05:56:35.196Z,51.57
2022-10-25T05:59:06.874Z,51.73
2022-10-25T06:01:35.782Z,51.51
2022-10-25T06:04:04.358Z,51.79
2022-10-25T06:06:34.247Z,51.72
2022-10-25T06:09:02.894Z,51.75
2022-10-25T06:11:32.899Z,51.85
2022-10-25T06:14:01.442Z,51.50
2022-10-25T06:16:30.024Z,51.38
2022-10-25T06:18:58.543Z,50.94
2022-10-25T06:21:28.652Z,51.22
2022-10-25T06:23:59.821Z,51.25
2022-10-25T06:26:30.384Z,51.56
2022-10-25T06:29:00.482Z,51.51
2022-10-25T06:31:29.326Z,51.50
2022-10-25T06:33:57.848Z,51.45
2022-10-25T06:36:27.282Z,51.63
2022-10-25T06:38:55.957Z,51.35
2022-10-25T06:41:28.001Z,51.41
2022-10-25T06:43:56.647Z,51.12
2022-10-25T06:46:26.950Z,51.42
2022-10-25T06:48:56.415Z,51.34
2022-10-25T06:51:25.337Z,50.96
2022-10-25T06:53:56.362Z,51.16
2022-10-25T06:56:26.599Z,51.31
2022-10-25T06:58:55.309Z,50.91
2022-10-25T07:01:24.940Z,51.44
2022-10-25T07:03:55.016Z,51.40
2022-10-25T07:06:25.478Z,50.95
2022-10-25T07:08:55.905Z,51.23
2022-10-25T07:11:26.519Z,51.24
2022-10-25T07:13:55.040Z,50.92
2022-10-25T07:16:23.694Z,50.88
2022-10-25T07:18:52.309Z,50.99
2022-10-25T07:21:22.135Z,51.05
2022-10-25T07:23:51.509Z,51.14
2022-10-25T07:26:21.402Z,51.18
2022-10-25T07:28:52.523Z,51.15
2022-10-25T07:31:22.662Z,51.15
2022-10-25T07:33:51.664Z,51.11
2022-10-25T07:36:20.452Z,51.17
2022-10-25T07:38:49.205Z,50.96
2022-10-25T07:41:17.803Z,51.30
2022-10-25T07:43:46.497Z,51.02
2022-10-25T07:46:16.508Z,51.09
2022-10-25T07:48:45.100Z,50.79
2022-10-25T07:51:15.009Z,51.07
2022-10-25T07:53:43.919Z,51.19
2022-10-25T07:56:17.446Z,51.35
2022-10-25T07:58:49.313Z,50.92
2022-10-25T08:01:22.501Z,50.60
2022-10-25T08:03:51.339Z,50.93
2022-10-25T08:06:20.154Z,50.81
2022-10-25T08:08:49.135Z,50.64
2022-10-25T08:11:17.741Z,51.17
2022-10-25T08:13:48.492Z,51.01
2022-10-25T08:16:17.101Z,51.09
2022-10-25T08:18:47.037Z,50.82
2022-10-25T08:21:15.594Z,50.67
2022-10-25T08:23:44.127Z,51.01
2022-10-25T08:26:12.691Z,50.60
2022-10-25T08:28:42.480Z,51.01
2022-10-25T08:31:11.484Z,50.85
2022-10-25T08:33:40.412Z,50.50
2022-10-25T08:36:11.274Z,50.72
2022-10-25T08:38:40.980Z,50.79
2022-10-25T08:41:14.485Z,50.83
2022-10-25T08:44:14.599Z,51.34
2022-10-25T08:46:45.312Z,51.20
2022-10-25T08:49:19.725Z,51.38
2022-10-25T08:51:50.682Z,51.30
2022-10-25T08:54:27.398Z,51.16
2022-10-25T08:57:16.713Z,51.26
2022-10-25T08:59:47.226Z,51.67
2022-10-25T09:02:22.480Z,51.97
2022-10-25T09:04:51.529Z,51.67
2022-10-25T09:07:32.130Z,51.29
2022-10-25T09:10:02.285Z,50.95
2022-10-25T09:12:33.477Z,51.05
2022-10-25T09:15:04.660Z,50.95
2022-10-25T09:17:35.644Z,51.00
2022-10-25T09:20:06.164Z,51.09
2022-10-25T09:22:42.635Z,50.88
2022-10-25T09:25:15.371Z,50.75
2022-10-25T09:27:47.648Z,51.10
2022-10-25T09:30:16.880Z,51.10
2022-10-25T09:32:47.128Z,51.00
2022-10-25T09:35:18.049Z,51.07
2022-10-25T09:37:50.306Z,50.88
2022-10-25T09:40:20.947Z,50.92
2022-10-25T09:42:51.652Z,50.92
2022-10-25T09:45:23.712Z,50.92
2022-10-25T09:47:55.746Z,50.91
2022-10-25T09:50:26.566Z,50.79
2022-10-25T09:53:02.874Z,50.93
2022-10-25T09:55:34.528Z,50.82
2022-10-25T09:58:03.356Z,50.91
2022-10-25T10:00:32.258Z,50.69
2022-10-25T10:03:01.669Z,50.83
2022-10-25T10:05:30.541Z,50.65
2022-10-25T10:08:01.293Z,51.09
2022-10-25T10:10:33.538Z,50.75
2022-10-25T10:13:05.375Z,50.66
2022-10-25T10:15:38.736Z,51.06
2022-10-25T10:18:28.540Z,50.76
2022-10-25T10:21:07.110Z,50.70
2022-10-25T10:23:39.893Z,50.87
2022-10-25T10:26:12.216Z,50.81
2022-10-25T10:28:45.835Z,50.75
2022-10-25T10:31:15.575Z,50.57
2022-10-25T10:33:50.147Z,50.85
2022-10-25T10:36:23.189Z,50.86
2022-10-25T10:38:54.972Z,50.83
2022-10-25T10:41:26.201Z,51.00
2022-10-25T10:44:09.099Z,50.73
2022-10-25T10:46:37.990Z,50.66
2022-10-25T10:49:06.878Z,50.76
2022-10-25T10:51:44.710Z,50.57
2022-10-25T10:54:27.609Z,50.72
2022-10-25T10:56:57.395Z,50.61
2022-10-25T10:59:27.821Z,50.80
2022-10-25T11:01:57.045Z,50.66
2022-10-25T11:04:26.373Z,50.59
2022-10-25T11:06:55.387Z,50.78
2022-10-25T11:09:26.288Z,50.81
2022-10-25T11:12:08.193Z,50.78
2022-10-25T11:14:37.039Z,50.62
2022-10-25T11:17:09.763Z,50.76
2022-10-25T11:19:48.529Z,50.72
2022-10-25T11:22:32.185Z,50.63
2022-10-25T11:25:10.908Z,50.84
2022-10-25T11:27:47.963Z,50.67
2022-10-25T11:30:17.882Z,50.44
2022-10-25T11:33:21.634Z,50.67
2022-10-25T11:35:59.250Z,50.57
2022-10-25T11:38:33.666Z,50.48
2022-10-25T11:41:06.920Z,50.53
2022-10-25T11:43:53.052Z,50.47
2022-10-25T11:46:26.857Z,50.54
2022-10-25T11:49:03.527Z,50.67
2022-10-25T11:51:35.971Z,50.48
2022-10-25T11:54:12.434Z,50.51
2022-10-25T11:56:47.477Z,50.49
2022-10-25T11:59:19.980Z,50.50
2022-10-25T12:01:59.036Z,50.52
2022-10-25T12:04:41.623Z,50.57
2022-10-25T12:07:13.211Z,50.43
2022-10-25T12:09:46.734Z,50.69
2022-10-25T12:12:19.213Z,50.54
2022-10-25T12:14:49.247Z,50.54
2022-10-25T12:17:21.743Z,50.56
2022-10-25T12:19:51.237Z,50.51
2022-10-25T12:22:22.222Z,50.68
2022-10-25T12:24:52.605Z,50.87
2022-10-25T12:27:23.020Z,50.86
2022-10-25T12:29:54.490Z,50.52
2022-10-25T12:32:24.268Z,50.60
2022-10-25T12:34:53.762Z,50.84
2022-10-25T12:37:25.975Z,50.90
2022-10-25T12:39:54.990Z,50.88
2022-10-25T12:42:26.384Z,50.80
2022-10-25T12:45:10.138Z,50.90
2022-10-25T12:47:45.590Z,50.70
2022-10-25T12:50:26.917Z,50.83
2022-10-25T12:53:18.065Z,50.96
2022-10-25T12:56:05.227Z,51.26
2022-10-25T12:58:47.833Z,51.26
2022-10-25T13:01:30.053Z,51.10
2022-10-25T13:04:27.613Z,51.23
2022-10-25T13:06:56.777Z,51.28
2022-10-25T13:09:27.258Z,51.12
2022-10-25T13:11:59.847Z,50.96
2022-10-25T13:14:31.106Z,51.00
2022-10-25T13:17:36.716Z,51.09
2022-10-25T13:20:46.805Z,51.12
2022-10-25T13:24:02.894Z,51.20
2022-10-25T13:26:50.510Z,51.19
2022-10-25T13:30:01.129Z,51.21
2022-10-25T13:32:30.098Z,51.02
2022-10-25T13:34:59.139Z,50.88
2022-10-25T13:37:42.245Z,51.05
2022-10-25T13:40:25.810Z,50.89
2022-10-25T13:43:05.377Z,50.75
2022-10-25T13:45:43.078Z,50.99
2022-10-25T13:48:18.758Z,51.35
2022-10-25T13:50:48.350Z,51.13
2022-10-25T13:53:21.447Z,51.44
2022-10-25T13:56:00.288Z,50.98
2022-10-25T13:58:45.103Z,50.77
2022-10-25T14:01:56.001Z,51.01
2022-10-25T14:04:39.813Z,51.19
2022-10-25T14:07:45.254Z,51.13
2022-10-25T14:10:37.997Z,50.79
2022-10-25T14:13:17.679Z,51.07
2022-10-25T14:15:50.445Z,50.83
2022-10-25T14:18:20.822Z,51.25
2022-10-25T14:20:55.397Z,51.48
2022-10-25T14:23:25.785Z,51.68
2022-10-25T14:25:56.879Z,51.82
2022-10-25T14:28:27.081Z,51.70
2022-10-25T14:30:57.194Z,51.96
2022-10-25T14:33:30.396Z,51.55
2022-10-25T14:36:08.089Z,51.26
2022-10-25T14:38:38.627Z,51.24
2022-10-25T14:41:12.841Z,51.07
2022-10-25T14:43:42.286Z,51.38
2022-10-25T14:46:15.493Z,51.34
2022-10-25T14:48:46.774Z,51.20
2022-10-25T14:51:19.910Z,51.75
2022-10-25T14:53:53.801Z,51.37
2022-10-25T14:56:24.286Z,51.43
2022-10-25T14:58:53.192Z,51.31
2022-10-25T15:01:23.213Z,50.94
2022-10-25T15:03:53.032Z,51.37
2022-10-25T15:06:25.301Z,51.12
2022-10-25T15:09:16.159Z,50.93
2022-10-25T15:12:07.928Z,50.88
2022-10-25T15:14:36.737Z,51.05
2022-10-25T15:17:05.828Z,51.32
2022-10-25T15:19:34.646Z,51.40
2022-10-25T15:22:15.676Z,52.09
2022-10-25T15:24:45.377Z,51.84
2022-10-25T15:27:28.011Z,51.55
2022-10-25T15:29:56.930Z,52.17
2022-10-25T15:32:27.749Z,51.70
2022-10-25T15:35:00.909Z,51.61
2022-10-25T15:37:31.599Z,51.73
2022-10-25T15:40:01.921Z,51.69
2022-10-25T15:42:30.824Z,51.67
2022-10-25T15:44:59.649Z,51.57
2022-10-25T15:47:31.922Z,51.39
2022-10-25T15:50:00.983Z,51.34
2022-10-25T15:52:31.402Z,51.62
2022-10-25T15:55:00.200Z,51.45
2022-10-25T15:57:29.154Z,51.30
2022-10-25T15:59:58.174Z,51.30
2022-10-25T16:02:28.700Z,51.25
2022-10-25T16:04:57.629Z,51.43
2022-10-25T16:07:26.874Z,51.48
2022-10-25T16:09:59.778Z,51.44
2022-10-25T16:12:31.723Z,51.19
2022-10-25T16:15:00.729Z,51.28
2022-10-25T16:17:30.315Z,51.21
2022-10-25T16:19:59.185Z,50.96
2022-10-25T16:22:28.086Z,51.30
2022-10-25T16:25:00.170Z,51.20
2022-10-25T16:27:29.062Z,51.02
2022-10-25T16:29:58.189Z,51.22
2022-10-25T16:32:26.960Z,51.04
2022-10-25T16:34:55.915Z,51.05
2022-10-25T16:37:24.762Z,50.84
2022-10-25T16:39:53.818Z,50.96
2022-10-25T16:42:31.410Z,51.12
2022-10-25T16:45:00.391Z,50.88
2022-10-25T16:47:29.313Z,50.79
2022-10-25T16:49:58.146Z,50.89
2022-10-25T16:52:27.115Z,50.91
2022-10-25T16:54:56.017Z,50.84
2022-10-25T16:57:25.188Z,50.87
2022-10-25T16:59:55.487Z,50.52
2022-10-25T17:02:25.585Z,50.56
2022-10-25T17:04:54.656Z,50.71
2022-10-25T17:07:24.467Z,50.52
2022-10-25T17:09:54.098Z,50.66
2022-10-25T17:12:23.241Z,50.65
2022-10-25T17:14:52.101Z,50.55
2022-10-25T17:17:27.196Z,50.72
2022-10-25T17:19:56.033Z,50.50
2022-10-25T17:22:27.312Z,50.48
2022-10-25T17:24:56.174Z,50.62
2022-10-25T17:27:25.118Z,50.43
2022-10-25T17:29:54.248Z,50.23
2022-10-25T17:32:23.227Z,50.50
2022-10-25T17:35:01.317Z,50.42
2022-10-25T17:37:30.258Z,50.49
2022-10-25T17:39:59.228Z,50.27
2022-10-25T17:42:29.026Z,50.27
2022-10-25T17:44:59.635Z,50.38
2022-10-25T17:47:28.388Z,50.23
2022-10-25T17:50:01.726Z,50.17
2022-10-25T17:52:30.704Z,50.27
2022-10-25T17:54:59.939Z,50.19
2022-10-25T17:57:33.369Z,50.42
2022-10-25T18:00:03.200Z,50.40
2022-10-25T18:02:32.518Z,50.26
2022-10-25T18:05:19.338Z,50.54
2022-10-25T18:07:49.130Z,50.18
2022-10-25T18:10:18.691Z,50.42
2022-10-25T18:12:50.803Z,50.37
2022-10-25T18:15:20.040Z,50.66
2022-10-25T18:17:49.415Z,50.66
2022-10-25T18:20:20.008Z,50.61
2022-10-25T18:22:48.828Z,50.57
2022-10-25T18:25:17.912Z,50.57
2022-10-25T18:27:47.155Z,50.59
2022-10-25T18:30:16.495Z,50.78
2022-10-25T18:32:45.297Z,50.95
2022-10-25T18:35:14.136Z,50.92
2022-10-25T18:37:44.307Z,50.84
2022-10-25T18:40:14.616Z,50.66
2022-10-25T18:42:43.414Z,51.57
2022-10-25T18:45:12.127Z,51.21
2022-10-25T18:47:43.826Z,51.57
2022-10-25T18:50:12.504Z,51.22
2022-10-25T18:52:43.502Z,51.32
2022-10-25T18:55:12.106Z,51.59
2022-10-25T18:57:40.691Z,51.65
2022-10-25T19:00:10.631Z,51.26
2022-10-25T19:02:39.349Z,51.20
2022-10-25T19:05:08.840Z,51.29
2022-10-25T19:07:37.547Z,51.30
2022-10-25T19:10:08.734Z,50.84
2022-10-25T19:12:44.418Z,51.32
2022-10-25T19:15:13.135Z,51.25
2022-10-25T19:17:41.984Z,51.31
2022-10-25T19:20:11.389Z,51.21
2022-10-25T19:22:39.985Z,51.63
2022-10-25T19:25:10.934Z,51.34
2022-10-25T19:27:39.535Z,51.36
2022-10-25T19:30:10.080Z,51.39
2022-10-25T19:32:39.054Z,51.46
2022-10-25T19:35:08.421Z,51.50
2022-10-25T19:37:40.014Z,51.59
2022-10-25T19:40:11.382Z,51.41
2022-10-25T19:42:40.060Z,51.18
2022-10-25T19:45:09.447Z,51.66
2022-10-25T19:47:38.277Z,51.67
2022-10-25T19:50:07.703Z,52.26
2022-10-25T19:52:36.446Z,52.26
2022-10-25T19:55:06.099Z,52.68
2022-10-25T19:57:36.353Z,52.89
2022-10-25T20:00:09.848Z,52.44
2022-10-25T20:02:41.532Z,52.27
2022-10-25T20:07:40.394Z,51.95
2022-10-25T20:10:09.457Z,52.30
2022-10-25T20:12:39.469Z,52.20
2022-10-25T20:15:09.162Z,52.13
2022-10-25T20:17:37.782Z,52.08
2022-10-25T20:20:08.128Z,52.04
2022-10-25T20:22:37.998Z,51.80
2022-10-25T20:25:08.227Z,52.11
2022-10-25T20:27:38.327Z,52.05
2022-10-25T20:30:08.280Z,51.91
2022-10-25T20:32:36.889Z,51.58
2022-10-25T20:35:06.118Z,51.93
2022-10-25T20:37:34.764Z,51.76
2022-10-25T20:40:04.100Z,51.43
2022-10-25T20:42:32.687Z,51.55
2022-10-25T20:47:32.302Z,51.78
2022-10-25T20:50:00.932Z,51.66
2022-10-25T20:52:29.519Z,51.40
2022-10-25T20:54:58.171Z,51.75
2022-10-25T20:57:26.812Z,51.39
2022-10-25T20:59:55.444Z,51.68
2022-10-25T21:02:25.502Z,51.50
2022-10-25T21:04:54.613Z,51.58
2022-10-25T21:07:23.303Z,51.60
2022-10-25T21:09:51.894Z,51.71
2022-10-25T21:12:20.521Z,51.70
2022-10-25T21:14:49.157Z,52.00
2022-10-25T21:17:17.760Z,51.45
2022-10-25T21:19:47.747Z,51.32
2022-10-25T21:22:16.450Z,51.47
2022-10-25T21:24:45.005Z,51.18
2022-10-25T21:27:13.584Z,51.29
2022-10-25T21:29:42.108Z,51.46
2022-10-25T21:32:11.501Z,51.29
2022-10-25T21:34:40.082Z,51.21
2022-10-25T21:37:10.016Z,51.42
2022-10-25T21:39:38.600Z,51.50
2022-10-25T21:42:07.317Z,51.38
2022-10-25T21:44:35.940Z,51.48
2022-10-25T21:47:04.614Z,51.13
2022-10-25T21:49:33.277Z,51.10
2022-10-25T21:52:01.879Z,51.35
2022-10-25T21:54:31.925Z,50.85
2022-10-25T21:57:01.357Z,51.09
2022-10-25T21:59:30.021Z,51.30
2022-10-25T22:01:58.682Z,51.29
2022-10-25T22:04:28.013Z,50.67
2022-10-25T22:06:56.528Z,51.22
2022-10-25T22:09:26.863Z,51.22
2022-10-25T22:11:56.973Z,50.85
2022-10-25T22:14:25.522Z,51.09
2022-10-25T22:16:53.980Z,51.20
2022-10-25T22:21:52.434Z,51.02
2022-10-25T22:24:21.451Z,51.16
2022-10-25T22:26:51.367Z,51.00
2022-10-25T22:29:21.357Z,51.14
2022-10-25T22:31:50.021Z,50.78
2022-10-25T22:34:19.453Z,50.94
2022-10-25T22:36:47.930Z,50.95
2022-10-25T22:39:16.735Z,50.63
2022-10-25T22:41:46.201Z,50.79
2022-10-25T22:44:14.773Z,50.78
2022-10-25T22:46:44.731Z,50.74
2022-10-25T22:49:13.269Z,51.05
2022-10-25T22:51:41.746Z,50.75
2022-10-25T22:54:10.432Z,50.80
2022-10-25T22:56:38.971Z,50.77
2022-10-25T22:59:07.753Z,50.90
2022-10-25T23:01:37.887Z,50.40
2022-10-25T23:04:09.387Z,50.67
2022-10-25T23:06:39.492Z,51.03
2022-10-25T23:09:09.877Z,50.36
2022-10-25T23:11:39.610Z,50.63
2022-10-25T23:14:13.375Z,50.47
2022-10-25T23:16:45.284Z,50.43
2022-10-25T23:19:15.205Z,50.50
2022-10-25T23:21:43.857Z,50.58
2022-10-25T23:24:12.519Z,50.77
2022-10-25T23:26:41.226Z,50.48
2022-10-25T23:29:14.007Z,50.62
2022-10-25T23:31:42.530Z,50.80
2022-10-25T23:34:11.611Z,50.43
2022-10-25T23:36:41.583Z,50.32
2022-10-25T23:39:10.470Z,50.47
2022-10-25T23:41:39.239Z,50.34
2022-10-25T23:44:07.767Z,50.12
2022-10-25T23:46:36.385Z,50.52
2022-10-25T23:49:08.258Z,50.36
2022-10-25T23:51:37.217Z,50.14
2022-10-25T23:54:09.578Z,50.15
2022-10-25T23:56:38.297Z,50.37
2022-10-25T23:59:06.881Z,50.45
